Time;durP1;ratioP1;P1;durP2;ratioP2;P2;SDS_P1;SDS_P2;PMS_P1;PMS_P2;Temp;Humidity;BMP_temperature;BMP_pressure;BME280_temperature;BME280_humidity;BME280_pressure;Samples;Min_cycle;Max_cycle;Signal;HPM_P1;HPM_P2
2022/03/21 00:01:51;;;;;;;;;;;;;;;3.39;71.76;100844.00;5010402;28;20386;-80
2022/03/21 00:04:17;;;;;;;;;;;;;;;3.40;71.70;100844.00;5010615;28;19924;-80
2022/03/21 00:06:42;;;;;;;;;;;;;;;3.43;71.78;100846.66;5010360;28;19918;-79
2022/03/21 00:09:07;;;;;;;;;;;;;;;3.42;71.89;100847.50;5009933;28;19922;-80
2022/03/21 00:11:33;;;;;;;;;;;;;;;3.45;71.77;100847.53;5000518;28;20320;-79
2022/03/21 00:13:58;;;;;;;;;;;;;;;3.48;71.75;100851.00;5008529;28;20022;-81
2022/03/21 00:16:24;;;;;;;;;;;;;;;3.48;71.77;100856.25;4999543;28;20403;-81
2022/03/21 00:18:50;;;;;;;;;;;;;;;3.52;71.76;100855.41;4995872;28;19918;-80
2022/03/21 00:21:17;;;;;;;;;;;;;;;3.52;72.01;100856.25;4995196;28;19925;-80
2022/03/21 00:23:42;;;;;;;;;;;;;;;3.55;71.96;100858.03;5009536;28;19917;-80
2022/03/21 00:26:07;;;;;;;;;;;;;;;3.57;72.33;100856.28;4999793;28;20361;-81
2022/03/21 00:28:33;;;;;;;;;;;;;;;3.57;72.11;100856.28;5005014;28;19950;-80
2022/03/21 00:30:59;;;;;;;;;;;;;;;3.58;72.30;100853.66;5009050;28;19924;-80
2022/03/21 00:33:24;;;;;;;;;;;;;;;3.57;72.12;100859.78;5005375;28;20012;-80
2022/03/21 00:35:50;;;;;;;;;;;;;;;3.60;72.19;100862.41;5015714;28;20012;-81
2022/03/21 00:38:16;;;;;;;;;;;;;;;3.61;72.19;100852.81;5010398;28;19927;-81
2022/03/21 00:40:45;;;;;;;;;;;;;;;3.63;72.27;100858.94;5014791;28;19996;-81
2022/03/21 00:43:11;;;;;;;;;;;;;;;3.62;72.27;100857.16;5009842;28;19972;-80
2022/03/21 00:45:38;;;;;;;;;;;;;;;3.65;72.35;100859.78;5008844;28;20349;-81
2022/03/21 00:48:04;;;;;;;;;;;;;;;3.64;72.39;100858.94;5000665;28;20004;-80
2022/03/21 00:50:29;;;;;;;;;;;;;;;3.68;72.46;100854.56;5005824;28;19960;-80
2022/03/21 04:27:38;;;;;;;;;;;;;;;3.32;98.21;100924.34;5195990;23;19937;-80
2022/03/21 04:30:04;;;;;;;;;;;;;;;3.14;98.31;100918.97;5005101;28;19922;-81
2022/03/21 04:32:29;;;;;;;;;;;;;;;3.23;98.26;100924.28;5005075;28;20288;-80
2022/03/21 04:34:54;;;;;;;;;;;;;;;3.16;97.88;100923.38;5005538;28;20362;-78
2022/03/21 04:37:20;;;;;;;;;;;;;;;3.17;97.67;100929.47;5005695;28;19960;-79
2022/03/21 04:39:45;;;;;;;;;;;;;;;3.04;97.36;100932.03;5004359;28;19929;-80
2022/03/21 04:42:10;;;;;;;;;;;;;;;3.07;97.42;100942.50;5003832;28;19953;-79
2022/03/21 04:44:36;;;;;;;;;;;;;;;3.14;97.22;100950.41;5006017;28;20434;-79
2022/03/21 04:47:01;;;;;;;;;;;;;;;3.16;96.78;100956.53;5002936;28;19918;-79
2022/03/21 04:49:27;;;;;;;;;;;;;;;3.18;96.53;100950.44;5004889;28;19921;-81
2022/03/21 04:51:53;;;;;;;;;;;;;;;3.09;96.14;100948.66;5005459;28;20453;-81
2022/03/21 04:54:18;;;;;;;;;;;;;;;2.98;96.32;100952.91;5006899;28;19917;-80
2022/03/21 04:56:43;;;;;;;;;;;;;;;3.05;96.04;100953.88;5023282;28;19937;-81
2022/03/21 04:59:09;;;;;;;;;;;;;;;2.92;95.99;100958.16;5015234;28;19925;-80
2022/03/21 05:01:35;;;;;;;;;;;;;;;3.00;95.97;100959.06;5024439;28;19918;-81
2022/03/21 05:04:00;;;;;;;;;;;;;;;3.05;95.34;100964.34;5006609;28;20372;-80
2022/03/21 05:06:25;;;;;;;;;;;;;;;2.96;95.11;100961.66;5018420;28;20327;-80
2022/03/21 05:08:51;;;;;;;;;;;;;;;2.95;95.06;100960.75;5006574;28;19924;-82
2022/03/21 05:11:16;;;;;;;;;;;;;;;2.92;95.15;100963.38;5023098;28;19963;-79
2022/03/21 05:13:41;;;;;;;;;;;;;;;2.94;95.26;100966.88;5007037;28;20024;-79
2022/03/21 05:16:06;;;;;;;;;;;;;;;2.88;94.77;100961.59;5006933;28;19921;-79
2022/03/21 05:18:34;;;;;;;;;;;;;;;2.90;94.72;100971.22;5017939;28;19921;-79
2022/03/21 05:21:03;;;;;;;;;;;;;;;2.86;94.21;100974.66;5014657;28;19971;-79
2022/03/21 05:31:41;;;;;;;;;;;;;;;2.85;93.21;100972.03;5002890;28;19924;-80
2022/03/21 05:36:50;;;;;;;;;;;;;;;2.84;92.60;100972.88;5004333;28;20535;-80
2022/03/21 05:39:16;;;;;;;;;;;;;;;2.86;92.46;100976.41;5003363;28;19921;-80
2022/03/21 05:41:41;;;;;;;;;;;;;;;2.73;92.09;100968.47;4989475;28;20328;-79
2022/03/21 05:44:07;;;;;;;;;;;;;;;2.75;91.91;100972.84;5004732;28;20008;-79
2022/03/21 05:46:33;;;;;;;;;;;;;;;2.76;91.67;100980.72;4993677;28;19918;-81
2022/03/21 08:58:27;;;;;;;;;;;;;;;2.41;80.96;101087.63;5866581;22;19933;-80
2022/03/21 09:00:52;;;;;;;;;;;;;;;2.41;81.08;101085.91;5001980;28;19933;-80
2022/03/21 09:03:17;;;;;;;;;;;;;;;2.47;81.16;101091.22;5004690;28;20284;-80
2022/03/21 09:05:43;;;;;;;;;;;;;;;2.46;81.03;101093.81;5004447;28;19922;-81
2022/03/21 09:08:09;;;;;;;;;;;;;;;2.47;80.94;101087.72;5003861;28;19927;-81
2022/03/21 09:10:34;;;;;;;;;;;;;;;2.50;80.85;101087.75;4987509;28;19918;-82
2022/03/21 09:12:59;;;;;;;;;;;;;;;2.52;80.96;101080.78;4985196;28;19918;-81
2022/03/21 09:15:25;;;;;;;;;;;;;;;2.57;81.35;101083.44;5003603;28;19929;-81
2022/03/21 09:17:51;;;;;;;;;;;;;;;2.55;81.12;101080.81;5004576;28;19922;-81
2022/03/21 09:20:16;;;;;;;;;;;;;;;2.53;81.25;101087.78;5004507;28;19933;-81
2022/03/21 09:22:41;;;;;;;;;;;;;;;2.60;80.98;101083.47;5004145;28;20024;-81
2022/03/21 09:25:07;;;;;;;;;;;;;;;2.54;80.71;101093.03;5004565;28;19922;-83
2022/03/21 09:27:32;;;;;;;;;;;;;;;2.56;80.90;101085.19;5003627;28;19921;-81
2022/03/21 09:29:58;;;;;;;;;;;;;;;2.59;80.68;101085.22;5003193;28;19924;-82
2022/03/21 09:32:25;;;;;;;;;;;;;;;2.61;80.40;101075.66;5002910;28;19926;-81
2022/03/21 09:34:50;;;;;;;;;;;;;;;2.59;80.38;101077.38;5000917;28;19925;-81
2022/03/21 09:37:15;;;;;;;;;;;;;;;2.58;80.28;101080.84;5004252;28;20513;-82
2022/03/21 09:39:41;;;;;;;;;;;;;;;2.60;80.21;101073.00;5002985;28;19918;-81
2022/03/21 09:42:06;;;;;;;;;;;;;;;2.61;80.28;101075.66;5004168;28;19925;-81
2022/03/21 09:44:31;;;;;;;;;;;;;;;2.59;80.13;101066.91;5002804;28;19918;-84
2022/03/21 09:46:59;;;;;;;;;;;;;;;2.61;80.41;101065.19;5003835;28;20277;-81
2022/03/21 09:49:27;;;;;;;;;;;;;;;2.62;80.27;101064.31;4996795;28;19918;-82
2022/03/21 09:51:53;;;;;;;;;;;;;;;2.63;80.21;101067.81;5003503;28;19917;-81
2022/03/21 09:54:19;;;;;;;;;;;;;;;2.61;80.10;101066.94;4986836;28;20016;-82
2022/03/21 09:56:44;;;;;;;;;;;;;;;2.65;80.23;101063.47;5003548;28;20351;-81
2022/03/21 09:59:09;;;;;;;;;;;;;;;2.66;79.93;101063.47;5008625;28;19927;-83
2022/03/21 10:01:36;;;;;;;;;;;;;;;2.70;80.08;101061.78;5006468;28;20687;-80
2022/03/21 10:04:02;;;;;;;;;;;;;;;2.69;80.06;101063.50;5005721;28;19975;-81
2022/03/21 10:06:34;;;;;;;;;;;;;;;2.72;80.16;101066.16;5004699;28;19925;-81
2022/03/21 10:09:03;;;;;;;;;;;;;;;2.75;79.79;101065.31;5023234;28;19924;-82
2022/03/21 10:11:28;;;;;;;;;;;;;;;2.71;79.71;101061.81;5004990;28;19980;-81
2022/03/21 10:13:53;;;;;;;;;;;;;;;2.79;80.01;101058.38;5004572;28;20369;-82
2022/03/21 10:16:19;;;;;;;;;;;;;;;2.77;80.10;101060.09;5023354;28;19918;-81
2022/03/21 10:18:53;;;;;;;;;;;;;;;2.76;80.04;101055.72;5005188;28;19921;-81
2022/03/21 10:21:19;;;;;;;;;;;;;;;2.80;80.01;101049.66;5022076;28;20056;-81
2022/03/21 10:23:56;;;;;;;;;;;;;;;2.82;80.27;101045.31;5020525;28;19921;-81
2022/03/21 10:26:25;;;;;;;;;;;;;;;2.85;79.96;101054.06;5004734;28;19921;-81
2022/03/21 10:28:51;;;;;;;;;;;;;;;2.89;79.89;101052.38;5021521;28;19967;-83
2022/03/21 10:31:32;;;;;;;;;;;;;;;2.89;79.77;101049.75;5003330;28;19929;-82
2022/03/21 10:34:01;;;;;;;;;;;;;;;2.91;79.45;101046.25;5003914;28;19925;-83
2022/03/21 10:36:26;;;;;;;;;;;;;;;2.87;79.18;101047.13;5003767;28;20344;-81
2022/03/21 10:39:05;;;;;;;;;;;;;;;2.88;79.16;101048.84;5020698;28;19948;-82
2022/03/21 10:41:34;;;;;;;;;;;;;;;2.91;79.10;101037.53;5022633;28;20020;-83
2022/03/21 10:44:00;;;;;;;;;;;;;;;2.92;79.12;101044.53;5020741;28;19917;-81
2022/03/21 10:46:25;;;;;;;;;;;;;;;2.91;78.88;101045.41;5022613;28;19913;-81
2022/03/21 10:48:59;;;;;;;;;;;;;;;2.94;78.83;101037.56;5005024;28;19917;-81
2022/03/21 10:51:25;;;;;;;;;;;;;;;2.97;78.82;101036.69;5004773;28;19917;-80
2022/03/21 10:53:50;;;;;;;;;;;;;;;2.98;78.96;101041.94;4998096;28;20012;-81
2022/03/21 10:56:15;;;;;;;;;;;;;;;2.99;78.87;101035.88;5021641;28;19921;-80
2022/03/21 10:58:42;;;;;;;;;;;;;;;3.02;78.83;101033.28;5002684;28;19928;-81
2022/03/21 11:01:23;;;;;;;;;;;;;;;3.03;78.96;101032.41;5012525;28;19926;-82
2022/03/21 11:03:49;;;;;;;;;;;;;;;3.06;79.01;101028.94;5015229;28;20330;-81
2022/03/21 11:06:15;;;;;;;;;;;;;;;3.04;78.95;101023.69;5022477;28;19921;-81
2022/03/21 11:08:41;;;;;;;;;;;;;;;3.06;79.08;101021.97;5017774;28;20017;-81
2022/03/21 11:11:08;;;;;;;;;;;;;;;3.08;78.77;101017.59;5011695;28;19929;-81
2022/03/21 11:13:33;;;;;;;;;;;;;;;3.10;78.48;101017.63;5003768;28;19917;-81
2022/03/21 11:15:59;;;;;;;;;;;;;;;3.16;78.81;101016.78;5022017;28;19940;-81
2022/03/21 11:18:25;;;;;;;;;;;;;;;3.16;79.16;101012.44;5001893;28;19932;-83
2022/03/21 11:20:51;;;;;;;;;;;;;;;3.22;79.24;101011.56;5022535;28;19917;-81
2022/03/21 11:23:18;;;;;;;;;;;;;;;3.17;78.98;101014.16;5004374;28;20007;-82
2022/03/21 11:25:51;;;;;;;;;;;;;;;3.21;78.95;101007.22;5004286;28;20395;-81
2022/03/21 11:28:40;;;;;;;;;;;;;;;3.23;78.76;101014.22;4999496;28;19928;-82
2022/03/21 11:31:15;;;;;;;;;;;;;;;3.24;78.66;101009.88;4992039;28;20283;-82
2022/03/21 11:33:57;;;;;;;;;;;;;;;3.26;78.57;101005.50;5012192;28;19917;-83
2022/03/21 11:36:24;;;;;;;;;;;;;;;3.27;78.40;101004.63;5011601;28;19921;-83
2022/03/21 11:38:49;;;;;;;;;;;;;;;3.28;78.58;101002.00;5002062;28;19917;-81
2022/03/21 11:41:14;;;;;;;;;;;;;;;3.32;78.71;101008.16;5021727;28;20487;-82
2022/03/21 11:43:41;;;;;;;;;;;;;;;3.34;78.66;101003.81;5020912;28;19924;-80
2022/03/21 11:46:29;;;;;;;;;;;;;;;3.37;78.58;101005.59;5002182;28;20341;-81
2022/03/21 11:48:54;;;;;;;;;;;;;;;3.37;78.34;100998.59;5019128;28;19946;-81
2022/03/21 11:51:21;;;;;;;;;;;;;;;3.42;78.71;100989.00;5020063;28;20356;-83
2022/03/21 11:53:49;;;;;;;;;;;;;;;3.39;78.49;100988.97;5019934;28;20365;-82
2022/03/21 11:56:18;;;;;;;;;;;;;;;3.43;78.51;100990.75;5002639;28;19928;-82
2022/03/21 11:58:44;;;;;;;;;;;;;;;3.43;78.35;100992.50;5015642;28;19960;-84
2022/03/21 12:01:12;;;;;;;;;;;;;;;3.47;78.31;100980.31;5018603;28;19925;-82
2022/03/21 12:03:41;;;;;;;;;;;;;;;3.51;78.50;100979.44;5002736;28;19928;-81
2022/03/21 12:06:29;;;;;;;;;;;;;;;3.50;78.48;100985.56;5003471;28;19976;-79
2022/03/21 12:09:11;;;;;;;;;;;;;;;3.51;78.47;100975.09;5020348;28;19928;-81
2022/03/21 12:11:39;;;;;;;;;;;;;;;3.55;78.70;100978.59;5011406;28;20323;-81
2022/03/21 12:14:20;;;;;;;;;;;;;;;3.56;78.79;100972.50;5019092;28;19917;-83
2022/03/21 12:17:06;;;;;;;;;;;;;;;3.58;78.84;100974.22;5020555;28;19932;-83
2022/03/21 12:20:03;;;;;;;;;;;;;;;3.59;78.73;100970.75;5020921;28;19925;-82
2022/03/21 12:22:34;;;;;;;;;;;;;;;3.61;78.66;100974.25;5005410;28;19970;-82
2022/03/21 12:25:06;;;;;;;;;;;;;;;3.64;78.78;100968.16;5021093;28;19928;-81
2022/03/21 12:27:32;;;;;;;;;;;;;;;3.63;78.49;100963.78;5020112;28;19925;-82
2022/03/21 12:30:16;;;;;;;;;;;;;;;3.67;78.71;100960.31;5021220;28;19922;-81
2022/03/21 12:32:51;;;;;;;;;;;;;;;3.71;79.21;100954.19;5020376;28;19940;-82
2022/03/21 12:35:40;;;;;;;;;;;;;;;3.75;79.48;100961.22;5020309;28;19947;-81
2022/03/21 12:38:05;;;;;;;;;;;;;;;3.80;80.02;100953.38;4994674;28;19918;-82
2022/03/21 12:40:31;;;;;;;;;;;;;;;3.80;80.21;100954.22;5003817;28;19922;-81
2022/03/21 12:43:00;;;;;;;;;;;;;;;3.85;80.71;100950.75;5019897;28;19921;-82
2022/03/21 12:45:29;;;;;;;;;;;;;;;3.89;80.85;100949.88;5021492;28;19971;-82
2022/03/21 12:47:59;;;;;;;;;;;;;;;3.88;80.91;100951.63;5006426;28;19957;-83
2022/03/21 12:50:24;;;;;;;;;;;;;;;3.95;81.23;100942.03;5007102;28;19921;-82
2022/03/21 12:52:54;;;;;;;;;;;;;;;4.17;82.94;100942.97;5006872;28;20360;-81
2022/03/21 12:55:19;;;;;;;;;;;;;;;4.22;84.58;100935.97;5006380;28;19929;-81
2022/03/21 12:58:00;;;;;;;;;;;;;;;4.25;85.78;100941.22;5023495;28;20303;-81
2022/03/21 13:00:27;;;;;;;;;;;;;;;4.24;86.97;100942.09;5024251;28;20356;-81
2022/03/21 13:02:56;;;;;;;;;;;;;;;4.18;87.54;100939.47;5007077;28;19929;-81
2022/03/21 13:11:02;;;;;;;;;;;;;;;3.88;89.98;100924.53;5024213;28;19975;-82
2022/03/21 13:13:38;;;;;;;;;;;;;;;3.77;90.68;100925.38;5023105;28;19921;-82
2022/03/21 13:16:10;;;;;;;;;;;;;;;3.75;91.81;100921.88;5024104;28;19924;-81
2022/03/21 13:18:36;;;;;;;;;;;;;;;3.79;92.85;100921.00;5024256;28;20349;-82
2022/03/21 13:21:03;;;;;;;;;;;;;;;3.83;95.27;100921.91;5022820;28;19976;-82
2022/03/21 13:23:28;;;;;;;;;;;;;;;4.06;98.54;100919.34;5024283;28;19924;-82
2022/03/21 13:26:06;;;;;;;;;;;;;;;4.29;100.00;100914.13;5006660;28;19917;-81
2022/03/21 13:28:33;;;;;;;;;;;;;;;4.50;100.00;100915.00;5023217;28;19925;-81
2022/03/21 13:31:00;;;;;;;;;;;;;;;4.61;100.00;100899.25;5024261;28;19917;-81
2022/03/21 13:33:27;;;;;;;;;;;;;;;4.66;100.00;100900.09;5024162;28;20037;-82
2022/03/21 13:35:58;;;;;;;;;;;;;;;4.75;100.00;100894.00;5022728;28;19924;-81
2022/03/21 13:38:25;;;;;;;;;;;;;;;4.79;100.00;100906.25;5023681;28;19928;-82
2022/03/21 13:40:51;;;;;;;;;;;;;;;4.83;100.00;100897.47;5022885;28;19971;-81
2022/03/21 13:43:21;;;;;;;;;;;;;;;4.84;100.00;100899.22;5022783;28;19968;-82
2022/03/21 13:45:47;;;;;;;;;;;;;;;4.89;100.00;100894.84;5023693;28;19921;-82
2022/03/21 13:48:30;;;;;;;;;;;;;;;4.94;100.00;100897.47;5023404;28;20020;-81
2022/03/21 13:50:58;;;;;;;;;;;;;;;4.99;100.00;100895.69;5024329;28;19927;-81
2022/03/21 13:53:25;;;;;;;;;;;;;;;5.01;100.00;100892.19;5021941;28;19976;-81
2022/03/21 13:55:51;;;;;;;;;;;;;;;5.03;100.00;100890.44;5022602;28;19917;-81
2022/03/21 13:58:30;;;;;;;;;;;;;;;5.08;100.00;100890.41;5003387;28;19948;-81
2022/03/21 14:00:57;;;;;;;;;;;;;;;5.07;100.00;100886.94;5005353;28;20281;-81
2022/03/21 14:03:31;;;;;;;;;;;;;;;5.13;100.00;100880.75;5004503;28;19921;-81
2022/03/21 14:05:56;;;;;;;;;;;;;;;5.19;100.00;100882.50;5020898;28;20381;-82
2022/03/21 14:08:22;;;;;;;;;;;;;;;5.20;100.00;100879.88;5019777;28;19974;-82
2022/03/21 14:10:48;;;;;;;;;;;;;;;5.23;100.00;100874.63;5021971;28;19926;-82
2022/03/21 14:13:21;;;;;;;;;;;;;;;5.18;100.00;100876.38;5021614;28;20411;-81
2022/03/21 14:15:46;;;;;;;;;;;;;;;5.21;100.00;100880.75;5013142;28;19921;-82
2022/03/21 14:18:12;;;;;;;;;;;;;;;5.25;100.00;100872.84;5005065;28;19918;-82
2022/03/21 14:20:39;;;;;;;;;;;;;;;5.30;100.00;100871.94;5021347;28;19924;-82
2022/03/21 14:23:04;;;;;;;;;;;;;;;5.28;100.00;100870.22;5018329;28;19918;-81
2022/03/21 14:28:13;;;;;;;;;;;;;;;4.30;100.00;100859.91;5021735;28;19979;-81
2022/03/21 14:30:38;;;;;;;;;;;;;;;3.88;100.00;100866.84;5004940;28;19964;-81
2022/03/21 14:33:03;;;;;;;;;;;;;;;3.68;100.00;100865.06;5021632;28;19917;-81
2022/03/21 14:35:29;;;;;;;;;;;;;;;3.63;100.00;100862.41;5004812;28;19925;-82
2022/03/21 14:37:54;;;;;;;;;;;;;;;3.61;100.00;100865.91;5021772;28;19922;-81
2022/03/21 14:40:19;;;;;;;;;;;;;;;3.44;100.00;100856.25;5004849;28;19917;-82
2022/03/21 14:42:46;;;;;;;;;;;;;;;3.38;100.00;100861.47;4998744;28;19917;-81
2022/03/21 14:45:12;;;;;;;;;;;;;;;3.48;100.00;100861.50;5004486;28;19925;-81
2022/03/21 14:47:37;;;;;;;;;;;;;;;3.37;100.00;100861.47;5021592;28;19921;-81
2022/03/21 14:50:04;;;;;;;;;;;;;;;3.33;100.00;100857.09;5004544;28;19917;-81
2022/03/21 14:52:29;;;;;;;;;;;;;;;3.23;100.00;100845.69;5005044;28;19917;-82
2022/03/21 14:54:54;;;;;;;;;;;;;;;3.23;100.00;100851.81;5022354;28;19921;-81
2022/03/21 14:57:19;;;;;;;;;;;;;;;3.21;100.00;100845.69;5021553;28;19924;-82
2022/03/21 14:59:45;;;;;;;;;;;;;;;3.21;100.00;100844.81;5020732;28;19953;-82
2022/03/21 15:02:11;;;;;;;;;;;;;;;3.18;99.34;100845.66;5019970;28;19921;-82
2022/03/21 15:04:38;;;;;;;;;;;;;;;3.24;98.85;100842.22;5019901;28;19917;-82
2022/03/21 15:07:04;;;;;;;;;;;;;;;3.30;98.18;100836.09;5019339;28;20005;-81
2022/03/21 15:09:29;;;;;;;;;;;;;;;3.15;97.52;100839.56;5020779;28;20012;-82
2022/03/21 15:11:54;;;;;;;;;;;;;;;3.09;97.35;100845.63;5020933;28;19918;-82
2022/03/21 15:14:19;;;;;;;;;;;;;;;3.08;97.16;100842.13;5020329;28;19917;-82
2022/03/21 15:16:45;;;;;;;;;;;;;;;3.05;97.12;100842.13;5020361;28;19972;-81
2022/03/21 15:19:10;;;;;;;;;;;;;;;3.01;96.92;100840.34;5020633;28;19921;-81
2022/03/21 15:21:35;;;;;;;;;;;;;;;3.04;96.85;100837.75;5020666;28;19940;-82
2022/03/21 15:24:01;;;;;;;;;;;;;;;3.03;96.61;100835.13;5002534;28;20296;-81
2022/03/21 15:26:26;;;;;;;;;;;;;;;3.04;96.44;100840.38;5020606;28;20292;-82
2022/03/21 15:28:52;;;;;;;;;;;;;;;2.96;96.30;100836.84;5002725;28;19917;-82
2022/03/21 15:31:18;;;;;;;;;;;;;;;3.03;96.06;100835.13;5003659;28;19917;-81
2022/03/21 15:33:43;;;;;;;;;;;;;;;3.01;95.74;100829.88;5020649;28;20336;-83
2022/03/21 15:41:42;;;;;;;;;;;;;;;2.93;95.16;100835.94;5020656;28;19984;-82
2022/03/21 15:44:11;;;;;;;;;;;;;;;2.92;94.73;100832.47;5020628;28;20372;-82
2022/03/21 15:46:37;;;;;;;;;;;;;;;2.96;94.48;100836.84;5022021;28;19970;-82
2022/03/21 15:49:02;;;;;;;;;;;;;;;2.96;93.84;100836.84;5004223;28;19924;-82
2022/03/21 15:51:28;;;;;;;;;;;;;;;2.94;93.17;100830.72;5003786;28;20273;-81
2022/03/21 15:53:53;;;;;;;;;;;;;;;2.91;92.76;100830.72;5004063;28;19940;-80
2022/03/21 15:56:18;;;;;;;;;;;;;;;2.87;92.50;100828.94;4999255;28;20372;-82
2022/03/21 15:58:44;;;;;;;;;;;;;;;2.89;92.20;100829.84;5002685;28;19928;-81
2022/03/21 16:01:11;;;;;;;;;;;;;;;2.85;91.96;100828.91;5000719;28;19924;-82
2022/03/21 16:03:38;;;;;;;;;;;;;;;2.89;91.71;100829.84;5016409;28;19922;-82
2022/03/21 16:06:03;;;;;;;;;;;;;;;2.85;91.63;100825.44;5000702;28;19928;-81
2022/03/21 16:08:30;;;;;;;;;;;;;;;2.88;91.27;100835.94;4998756;28;19922;-81
2022/03/21 16:10:55;;;;;;;;;;;;;;;2.86;91.10;100829.81;5021406;28;19928;-82
2022/03/21 16:13:21;;;;;;;;;;;;;;;2.85;90.80;100833.28;5019943;28;19918;-81
2022/03/21 16:15:46;;;;;;;;;;;;;;;2.83;90.89;100827.19;5020060;28;19921;-82
2022/03/21 16:18:12;;;;;;;;;;;;;;;2.75;90.83;100821.03;5003728;28;19925;-81
2022/03/21 16:20:43;;;;;;;;;;;;;;;2.77;90.63;100833.25;5020017;28;19928;-82
2022/03/21 16:23:09;;;;;;;;;;;;;;;2.76;90.99;100828.00;5023184;28;19960;-82
2022/03/21 16:25:34;;;;;;;;;;;;;;;2.73;90.68;100828.88;5006754;28;19960;-81
2022/03/21 16:27:59;;;;;;;;;;;;;;;2.76;90.51;100826.28;5022269;28;20012;-82
2022/03/21 16:30:24;;;;;;;;;;;;;;;2.77;90.43;100829.75;5024196;28;19944;-82
2022/03/21 16:32:50;;;;;;;;;;;;;;;2.75;90.38;100828.88;5007320;28;19921;-81
2022/03/21 16:35:15;;;;;;;;;;;;;;;2.76;90.22;100833.22;5023877;28;19921;-82
2022/03/21 16:37:41;;;;;;;;;;;;;;;2.68;90.06;100823.59;5022989;28;20016;-82
2022/03/21 16:40:07;;;;;;;;;;;;;;;2.72;89.81;100830.59;5023904;28;19972;-82
2022/03/21 16:42:32;;;;;;;;;;;;;;;2.70;89.53;100834.09;5021821;28;19918;-81
2022/03/21 16:44:57;;;;;;;;;;;;;;;2.70;89.47;100827.09;5023689;28;19932;-82
2022/03/21 16:47:23;;;;;;;;;;;;;;;2.69;89.14;100827.09;5023380;28;19972;-82
2022/03/21 16:49:49;;;;;;;;;;;;;;;2.67;89.13;100832.31;5022749;28;19921;-82
2022/03/21 16:52:17;;;;;;;;;;;;;;;2.67;88.95;100824.47;5005650;28;20296;-82
2022/03/21 16:54:43;;;;;;;;;;;;;;;2.68;88.83;100833.19;5006734;28;19921;-81
2022/03/21 16:57:08;;;;;;;;;;;;;;;2.68;88.73;100827.94;5024035;28;19960;-82
2022/03/21 16:59:36;;;;;;;;;;;;;;;2.66;88.64;100827.06;5004353;28;20340;-81
2022/03/21 17:02:02;;;;;;;;;;;;;;;2.70;88.61;100828.84;5006454;28;19921;-81
2022/03/21 17:04:27;;;;;;;;;;;;;;;2.68;88.30;100831.47;5022458;28;19932;-82
2022/03/21 17:06:52;;;;;;;;;;;;;;;2.66;88.29;100832.31;5023005;28;19917;-81
2022/03/21 17:09:17;;;;;;;;;;;;;;;2.66;87.88;100821.84;5006263;28;19928;-83
2022/03/21 17:11:43;;;;;;;;;;;;;;;2.67;87.69;100831.44;5023519;28;19917;-82
2022/03/21 17:14:12;;;;;;;;;;;;;;;2.76;87.36;100833.22;5017630;28;19921;-81
2022/03/21 17:16:40;;;;;;;;;;;;;;;2.65;87.07;100830.53;5006650;28;19921;-83
2022/03/21 17:24:33;;;;;;;;;;;;;;;2.67;86.95;100834.06;5023964;28;19976;-82
2022/03/21 17:26:58;;;;;;;;;;;;;;;2.65;86.86;100836.66;5023775;28;19952;-82
2022/03/21 17:29:24;;;;;;;;;;;;;;;2.67;86.89;100831.44;5005207;28;19971;-82
2022/03/21 17:31:49;;;;;;;;;;;;;;;2.64;86.87;100840.16;5023972;28;19964;-82
2022/03/21 17:34:14;;;;;;;;;;;;;;;2.69;86.57;100838.41;5023844;28;19918;-82
2022/03/21 17:36:41;;;;;;;;;;;;;;;2.65;86.32;100836.66;5023631;28;19917;-82
2022/03/21 17:39:06;;;;;;;;;;;;;;;2.61;86.08;100850.59;5024095;28;20399;-82
2022/03/21 17:41:32;;;;;;;;;;;;;;;2.61;86.01;100840.13;5024147;28;19917;-81
2022/03/21 17:43:57;;;;;;;;;;;;;;;2.61;86.01;100847.97;5021236;28;19917;-82
2022/03/21 17:46:23;;;;;;;;;;;;;;;2.64;85.85;100849.75;5023564;28;19921;-83
2022/03/21 17:48:48;;;;;;;;;;;;;;;2.60;85.66;100847.97;5022496;28;19920;-82
2022/03/21 17:51:14;;;;;;;;;;;;;;;2.60;85.55;100853.19;5023470;28;19921;-82
2022/03/21 17:53:39;;;;;;;;;;;;;;;2.60;85.60;100851.47;5023719;28;20367;-81
2022/03/21 17:56:06;;;;;;;;;;;;;;;2.59;85.43;100860.19;5023633;28;19924;-82
2022/03/21 17:58:32;;;;;;;;;;;;;;;2.64;85.23;100854.97;5021971;28;20312;-82
2022/03/21 18:00:57;;;;;;;;;;;;;;;2.65;85.15;100856.72;5023643;28;20423;-82
2022/03/21 18:03:23;;;;;;;;;;;;;;;2.61;84.81;100855.81;5023633;28;20052;-81
2022/03/21 18:05:49;;;;;;;;;;;;;;;2.61;84.79;100865.44;5023019;28;19971;-81
2022/03/21 18:08:15;;;;;;;;;;;;;;;2.63;84.74;100867.19;5022268;28;20011;-81
2022/03/21 18:10:41;;;;;;;;;;;;;;;2.60;84.45;100867.19;5023508;28;20090;-81
2022/03/21 18:13:06;;;;;;;;;;;;;;;2.59;84.33;100868.03;5003744;28;19925;-82
2022/03/21 18:15:32;;;;;;;;;;;;;;;2.59;84.38;100877.63;5004863;28;20365;-82
2022/03/21 18:17:57;;;;;;;;;;;;;;;2.61;84.30;100878.50;5021867;28;19917;-81
2022/03/21 18:20:23;;;;;;;;;;;;;;;2.61;84.26;100873.28;5005246;28;20368;-81
2022/03/21 18:22:49;;;;;;;;;;;;;;;2.63;84.26;100877.66;5013226;28;19960;-82
2022/03/21 18:25:14;;;;;;;;;;;;;;;2.61;84.24;100871.53;5005004;28;19917;-81
2022/03/21 18:27:40;;;;;;;;;;;;;;;2.63;84.17;100874.16;5021456;28;20278;-82
2022/03/21 18:30:05;;;;;;;;;;;;;;;2.62;84.14;100875.91;5005066;28;20012;-82
2022/03/21 18:32:31;;;;;;;;;;;;;;;2.61;84.12;100868.03;5004033;28;19918;-81
2022/03/21 18:34:56;;;;;;;;;;;;;;;2.60;84.04;100875.03;5005176;28;19921;-80
2022/03/21 18:37:21;;;;;;;;;;;;;;;2.59;83.85;100878.50;5023286;28;20303;-81
2022/03/21 18:39:47;;;;;;;;;;;;;;;2.69;83.83;100884.66;5023029;28;19921;-82
2022/03/21 18:42:14;;;;;;;;;;;;;;;2.65;83.75;100877.66;5004528;28;20008;-81
2022/03/21 18:44:53;;;;;;;;;;;;;;;2.64;83.51;100887.25;5002346;28;20399;-81
2022/03/21 18:47:18;;;;;;;;;;;;;;;2.69;83.38;100890.78;5004511;28;20012;-81
2022/03/21 18:49:44;;;;;;;;;;;;;;;2.68;83.08;100890.75;5021945;28;20012;-82
2022/03/21 18:52:10;;;;;;;;;;;;;;;2.68;83.19;100896.88;5020995;28;19917;-81
2022/03/21 18:54:35;;;;;;;;;;;;;;;2.69;83.18;100889.91;5004071;28;19929;-82
2022/03/21 18:57:01;;;;;;;;;;;;;;;2.70;83.14;100896.91;5021117;28;20277;-82
2022/03/21 18:59:26;;;;;;;;;;;;;;;2.74;82.86;100909.13;5020505;28;20395;-82
2022/03/21 19:01:51;;;;;;;;;;;;;;;2.70;82.63;100904.75;5004624;28;19918;-81
2022/03/21 19:04:17;;;;;;;;;;;;;;;2.69;82.46;100913.47;5022319;28;19917;-83
2022/03/21 19:06:42;;;;;;;;;;;;;;;2.68;82.47;100909.06;5022629;28;19917;-81
2022/03/21 19:09:07;;;;;;;;;;;;;;;2.72;82.44;100919.59;5004060;28;20357;-82
2022/03/21 19:11:33;;;;;;;;;;;;;;;2.76;82.29;100917.88;5004734;28;20384;-81
2022/03/21 19:14:01;;;;;;;;;;;;;;;2.73;82.07;100918.72;5021193;28;19924;-81
2022/03/21 19:16:27;;;;;;;;;;;;;;;2.72;81.85;100919.59;5004045;28;20551;-81
2022/03/21 19:18:53;;;;;;;;;;;;;;;2.72;82.02;100922.19;5022208;28;19925;-81
2022/03/21 19:21:18;;;;;;;;;;;;;;;2.73;81.86;100918.72;5022415;28;20063;-81
2022/03/21 19:23:43;;;;;;;;;;;;;;;2.81;82.01;100923.13;5021804;28;19917;-81
2022/03/21 19:26:08;;;;;;;;;;;;;;;2.76;81.77;100925.75;5021901;28;19925;-81
2022/03/21 19:28:34;;;;;;;;;;;;;;;2.81;81.54;100936.22;5020816;28;19913;-80
2022/03/21 19:31:00;;;;;;;;;;;;;;;2.76;81.53;100932.69;5022088;28;19921;-80
2022/03/21 19:33:25;;;;;;;;;;;;;;;2.78;81.64;100938.84;5020824;28;19918;-81
2022/03/21 19:35:51;;;;;;;;;;;;;;;2.79;81.58;100940.56;5021844;28;19928;-81
2022/03/21 19:38:16;;;;;;;;;;;;;;;2.84;81.70;100942.38;5022637;28;20340;-80
2022/03/21 19:40:41;;;;;;;;;;;;;;;2.79;81.52;100941.44;5022151;28;20373;-80
2022/03/21 19:43:06;;;;;;;;;;;;;;;2.78;81.40;100944.94;5020247;28;19921;-81
2022/03/21 19:45:35;;;;;;;;;;;;;;;2.81;81.27;100947.59;5022057;28;19917;-80
2022/03/21 19:48:01;;;;;;;;;;;;;;;2.80;81.11;100937.09;5022038;28;19921;-81
2022/03/21 19:50:26;;;;;;;;;;;;;;;2.82;81.13;100943.22;5021561;28;19918;-79
2022/03/21 19:52:52;;;;;;;;;;;;;;;2.79;80.91;100948.44;5021947;28;19921;-81
2022/03/21 19:55:18;;;;;;;;;;;;;;;2.87;80.96;100946.75;5005309;28;19917;-82
2022/03/21 19:57:47;;;;;;;;;;;;;;;2.85;80.83;100948.47;5024458;28;20004;-82
2022/03/21 20:00:13;;;;;;;;;;;;;;;2.86;80.76;100948.50;4993291;28;19976;-81